Relevés horaires Beauvechain (Belgique)


Relevés horaires à Beauvechain - Lundi 13 Mars 2017
Heure UTC1 Température [°C] Vent [km/h] Hum. [%] Pres.4 [hPa] Visi. [Km] Nébu. [octa] Préc.5 [mm] Cond.
2m. Res. Ros. Dir.2 Vit. Moy. Raf.3
23:00 5.5 5.5 4.8 NNO 1.9 -- 3.7 95 1033(1.0/3h) 11 -- -- --
22:00 5.9 5.9 5.0 NNO 1.9 -- 3.7 94 1032.9(1.6/3h) 18 3/8 -- --
21:00 6.5 6.5 5.0 NNO 1.9 -- 9.3 90 1032.5(2.1/3h) 18 3/8 -- --
20:00 7.5 6.7 5.6 NO 5.6 -- 7.4 88 1032(2.2/3h) 18 5/8 -- --
19:00 8.1 7.4 5.9 NO 5.6 -- 9.3 86 1031(2.1/3h) 18 5/8 -- --
18:00 9.6 9.6 6.3 NO 3.7 -- 14.8 80 1030.2(2.0/3h) 18 5/8 -- --
17:00 11.1 10.4 6.8 ONO 7.4 -- 11.1 75 1029.4(2.0/3h) 18 5/8 -- --
16:00 12.3 11.8 7.2 NO 7.4 7.4 13.0 71 1028.5(1.6/3h) 18 5/8 -- --
15:00 12.8 12.1 7.1 NO 9.3 -- 14.8 68 1028(1.1/3h) 18 5/8 -- --
14:00 13.8 13.3 7.7 NO 9.3 -- 13.0 67 1027.2(0.8/3h) 18 5/8 -- --
13:00 13.8 13.6 6.8 NNO 7.4 -- 13.0 63 1026.9(1.1/3h) 18 4/8 -- --
12:00 13.0 13 5.7 N 5.6 -- 11.1 61 1026.7(1.6/3h) 16 4/8 -- --
11:00 12.2 12.1 4.7 N 5.6 -- 9.3 60 1026.4(2.0/3h) 14 4/8 -- --
10:00 10.1 9.7 4.6 NNO 5.6 -- 11.1 69 1025.9(2.5/3h) 14 1/8 -- --
09:00 7.7 6.9 5.2 ONO 5.6 -- 11.1 84 1025.4(2.9/3h) 10 1/8 -- --
08:00 4.9 3.7 3.7 O 5.6 -- 9.3 92 1024.7(2.4/3h) 7 1/8 -- --
07:00 3.7 2.4 2.9 OSO 5.6 -- 7.4 94 1023.7(2.2/3h) 7 1/8 -- --
06:00 3.5 2.1 2.6 OSO 5.6 -- 7.4 94 1022.7(1.7/3h) 8 0/8 -- --
05:00 3.9 3.9 2.3 SO 3.7 -- 5.6 89 1022.2(1.9/3h) 12 -- -- --
04:00 5.1 5.1 1.7 NNO 1.9 -- 3.7 79 1021.2(1.7/3h) 20 -- -- --
03:00 5.9 5.9 1.6 OSO 3.7 -- 3.7 74 1020.7(2.0/3h) 20 -- -- --
02:00 5.9 5.9 1.8 NNO 1.9 -- 3.7 75 1020.1(2.1/3h) 20 -- -- --
01:00 7.6 7.6 1.7 SO 3.7 -- 3.7 66 1019.3(2.0/3h) 20 -- -- --
00:00 8.1 8.1 1.9 NNO 1.9 -- 5.6 65 1018.5(1.7/3h) 20 -- -- --

1 Coordinated Universal Time. Actuellement il est 14:00 locale et 12:00 UTC.

2 Le vent souffle depuis la direction indiquée vers la direction oposée.

3 Les rafales max. sont disponible 40 min après l'heure du relevé.

4 Pour les stations d'altitude (plus de 600m) le géopotentiel du niveau le plus proche de la pression obligatoire est indiqué.

5 Les stations disposant d'un diffuseur peuvent indiquer "trace". Cela signifie que des précipitations ont touchés le sol mais que la quantité est inférieure à 0.1 mm.

Récapitulatif de la journée
Température [°C] Vent [km/h] Ensoleillement4 [h] Precipitations totale5 [mm] Pression [Hpa]
Min1 Max.2 Moy.3 Max. Min Max.
3.5 14.0 7.4 14.8 0 h 0 min 0 1018.5 1033.0

1 Température minimale relevée entre 18:00 UTC la veille et 18:00 UTC le jour donné.

2 Température maximale relevée entre 06:00 UTC le jour donné et 06:00 UTC le lendemain.

3 Vent moyen de la journée basé sur les relevés horaires.

4 Ensoleillement en heures relevé entre 06:00 UTC la veille et 06:00 UTC le jour donné.

5 Précipitations totales tombées entre 06:00 UTC la jour donné et 06:00 UTC le lendemain.

Graphiques horaires